Racecast

Darius Banford

Sacramento Speed Factory (CA) · - · STS · Compare head to head

Athlete rating
Races 30
Seasons 2 2014 — 2015
Speed rating — all races

Track & Field

TF speed rating

2015 TF

Sacramento Speed Factory (CA) · Grade -

Date Meet Event Result Place Rating Difficulty PR/SR Flags
2015-06-21 USATF Pacific Association Junior Olympic Championships 200m 32.19 34th · 4th on team -0.031
2015-06-21 USATF Pacific Association Junior Olympic Championships 100m 15.27 35th · 2nd on team -0.031
2015-05-31 PAC (Pacific Association Youth Champions 200m 30.95 30th · 8th on team -0.024 SR
2015-05-31 PAC (Pacific Association Youth Champions 100m 15.06 28th · 4th on team -0.024
2015-05-16 3M Track Club Track and Field Invitation 100m 14.93 30th · 5th on team -0.028
2015-05-16 3M Track Club Track and Field Invitation 200m 31.28 28th · 6th on team -0.028
2015-05-02 Running Rebels/Top Pacers Invitational 200m 31.04 15th · 7th on team -0.038 SR
2015-05-02 Running Rebels/Top Pacers Invitational 100m 14.87 22nd · 6th on team -0.038 SR
2015-04-25 Revolution Express Track Club 200m 31.85 17th · 5th on team -0.024 SR
2015-04-25 Revolution Express Track Club 100m 15.14 18th · 4th on team -0.024 SR
2015-04-04 Sacramento Speed Factory 200m 33.82 23rd · 9th on team -0.033 SR
2015-04-04 Sacramento Speed Factory 400m 1:19.79 42nd · 9th on team -0.033 ★PR SR
2015-04-04 Sacramento Speed Factory 100m 15.36 25th · 6th on team -0.033 SR
2015-03-21 RPM Legacy 100m 15.43 37th · 6th on team -0.020 SR
2015-03-21 RPM Legacy 400m 1:21.75 58th · 8th on team -0.020 PR SR

2014 TF

Sacramento Speed Factory (CA) · Grade -

Date Meet Event Result Place Rating Difficulty PR/SR Flags
2014-06-20 USATF Pacific Assoc. Junior Olympics (Top 8) 200m 31.48 18th · 4th on team -0.031
2014-06-20 USATF Pacific Assoc. Junior Olympics (Top 8) 200m 30.79 13th · 2nd on team -0.031
2014-06-20 USATF Pacific Assoc. Junior Olympics (Top 8) 100m 14.98 17th · 3rd on team -0.031
2014-05-31 Pacific Association Championships (PAC) 100m 15.26 23rd · 3rd on team -0.024
2014-05-31 Pacific Association Championships (PAC) 200m 30.59 14th · 3rd on team -0.024 PR SR
2014-05-31 Pacific Association Championships (PAC) 200m 30.48 12th · 1st on team -0.024 ★PR SR
2014-05-24 Central Valley Roadrunners 200m 31.27 13th · 4th on team -0.026 PR SR
2014-05-24 Central Valley Roadrunners 200m 30.6 9th · 2nd on team -0.026 PR SR
2014-04-05 Sacramento Speed Showcase 100m 14.52 8th · 1st on team -0.033 ★PR SR
2014-04-05 Sacramento Speed Showcase 400m 1:25.46 43rd · 6th on team -0.033
2014-03-22 RPM 400m 1:27.24 33rd · 6th on team -0.012
2014-03-22 RPM 100m 15.24 14th · 1st on team -0.012 PR SR
2014-03-01 RETC Practice Meet 100m 15.9 4th · 1st on team -0.024 PR SR
2014-03-01 RETC Practice Meet 200m 38.2 8th · 4th on team -0.024 PR SR
2014-03-01 RETC Practice Meet 400m 1:25.3 10th · 2nd on team -0.024 PR SR